Time;durP1;ratioP1;P1;durP2;ratioP2;P2;SDS_P1;SDS_P2;PMS_P1;PMS_P2;Temp;Humidity;BMP_temperature;BMP_pressure;BME280_temperature;BME280_humidity;BME280_pressure;Samples;Min_cycle;Max_cycle;Signal;HPM_P1;HPM_P2
2022/01/17 00:01:25;;;;;;;11.82;6.25;;;;;;;;;;5047128;28;20112;-79
2022/01/17 00:03:50;;;;;;;13.60;7.22;;;;;;;;;;5046237;28;20494;-82
2022/01/17 00:06:15;;;;;;;9.50;5.88;;;;;;;;;;5046760;28;20025;-80
2022/01/17 00:08:42;;;;;;;12.07;7.07;;;;;;;;;;5046008;28;20017;-81
2022/01/17 00:11:09;;;;;;;10.85;6.55;;;;;;;;;;5046426;28;20388;-81
2022/01/17 00:13:34;;;;;;;10.50;5.28;;;;;;;;;;5045869;28;20025;-82
2022/01/17 00:16:08;;;;;;;14.93;7.38;;;;;;;;;;5046233;28;20112;-80
2022/01/17 00:21:02;;;;;;;10.55;5.35;;;;;;;;;;5044699;28;20162;-81
2022/01/17 00:23:27;;;;;;;14.35;7.25;;;;;;;;;;5045607;28;20029;-79
2022/01/17 00:25:52;;;;;;;11.57;6.18;;;;;;;;;;5044257;28;20022;-80
2022/01/17 00:28:18;;;;;;;13.45;7.25;;;;;;;;;;5045709;28;20407;-80
2022/01/17 00:30:43;;;;;;;14.85;6.78;;;;;;;;;;5045651;28;20029;-82
2022/01/17 00:33:08;;;;;;;13.05;6.82;;;;;;;;;;5027431;28;20040;-81
2022/01/17 00:35:34;;;;;;;13.98;7.47;;;;;;;;;;5046036;28;20026;-80
2022/01/17 00:37:59;;;;;;;12.18;7.18;;;;;;;;;;5045327;28;20060;-81
2022/01/17 00:40:25;;;;;;;11.93;6.50;;;;;;;;;;5045484;28;20025;-81
2022/01/17 00:42:50;;;;;;;13.75;6.95;;;;;;;;;;5026900;28;20025;-81
2022/01/17 00:45:16;;;;;;;11.48;6.70;;;;;;;;;;5044976;28;20025;-79
2022/01/17 00:47:42;;;;;;;11.18;5.78;;;;;;;;;;5050594;28;20009;-79
2022/01/17 00:50:08;;;;;;;13.38;7.32;;;;;;;;;;5058410;28;20044;-79
2022/01/17 00:52:33;;;;;;;12.15;6.82;;;;;;;;;;5057055;28;20037;-78
2022/01/17 00:54:59;;;;;;;10.32;6.32;;;;;;;;;;5052498;28;20033;-80
2022/01/17 00:57:24;;;;;;;12.30;6.32;;;;;;;;;;5040105;28;20026;-79
2022/01/17 00:59:49;;;;;;;11.95;6.93;;;;;;;;;;5039320;28;20538;-79
2022/01/17 01:02:15;;;;;;;10.02;5.60;;;;;;;;;;5041065;28;20467;-81
2022/01/17 01:04:40;;;;;;;10.45;5.93;;;;;;;;;;5040176;28;20478;-80
2022/01/17 01:07:05;;;;;;;12.65;6.55;;;;;;;;;;5041064;28;20033;-79
2022/01/17 01:09:36;;;;;;;12.27;6.85;;;;;;;;;;5041150;28;20032;-79
2022/01/17 01:12:02;;;;;;;11.20;5.88;;;;;;;;;;5042517;28;20036;-80
2022/01/17 01:14:28;;;;;;;14.98;7.30;;;;;;;;;;5040334;28;20053;-81
2022/01/17 01:16:56;;;;;;;12.50;6.95;;;;;;;;;;5041850;28;20052;-81
2022/01/17 01:30:02;;;;;;;12.52;7.30;;;;;;;;;;5047271;28;20082;-80
2022/01/17 01:32:36;;;;;;;10.68;5.18;;;;;;;;;;5047167;28;20037;-79
2022/01/17 01:35:02;;;;;;;13.60;7.35;;;;;;;;;;5048617;28;20109;-81
2022/01/17 01:37:28;;;;;;;11.60;6.57;;;;;;;;;;5047511;28;20029;-80
2022/01/17 01:39:54;;;;;;;13.02;6.78;;;;;;;;;;5047558;28;20466;-80
2022/01/17 01:42:21;;;;;;;12.60;7.50;;;;;;;;;;5047754;28;20176;-80
2022/01/17 01:44:48;;;;;;;12.75;6.45;;;;;;;;;;5047760;28;20021;-79
2022/01/17 01:47:13;;;;;;;12.60;6.63;;;;;;;;;;5046812;28;20036;-79
2022/01/17 01:49:39;;;;;;;11.20;6.00;;;;;;;;;;5046416;28;20017;-80
2022/01/17 01:52:04;;;;;;;9.30;5.93;;;;;;;;;;5047755;28;20120;-79
2022/01/17 01:54:30;;;;;;;9.27;5.00;;;;;;;;;;5045718;28;20467;-81
2022/01/17 01:56:56;;;;;;;11.60;5.95;;;;;;;;;;5046948;28;20033;-80
2022/01/17 01:59:22;;;;;;;12.02;7.03;;;;;;;;;;5047421;28;20051;-80
2022/01/17 02:01:51;;;;;;;13.82;6.93;;;;;;;;;;5048117;28;20064;-81
2022/01/17 02:04:17;;;;;;;16.13;6.70;;;;;;;;;;5030255;28;20025;-81
2022/01/17 02:06:43;;;;;;;9.55;5.47;;;;;;;;;;5028192;28;20032;-80
2022/01/17 02:09:08;;;;;;;13.90;6.43;;;;;;;;;;5046886;28;20040;-80
2022/01/17 02:11:35;;;;;;;12.27;6.75;;;;;;;;;;5047310;28;20029;-80
2022/01/17 02:14:00;;;;;;;15.38;8.15;;;;;;;;;;5046466;28;20032;-78
2022/01/17 02:16:27;;;;;;;10.88;6.55;;;;;;;;;;5046341;28;20037;-80
2022/01/17 02:18:52;;;;;;;13.80;7.57;;;;;;;;;;5045727;28;20028;-80
2022/01/17 02:21:33;;;;;;;13.10;7.35;;;;;;;;;;5028611;28;20029;-80
2022/01/17 02:23:59;;;;;;;11.70;6.95;;;;;;;;;;5046806;28;20449;-80
2022/01/17 02:26:25;;;;;;;10.43;6.30;;;;;;;;;;5045564;28;20021;-79
2022/01/17 02:28:52;;;;;;;13.60;7.47;;;;;;;;;;5046464;28;20501;-79
2022/01/17 02:31:19;;;;;;;10.43;6.47;;;;;;;;;;5046887;28;20048;-81
2022/01/17 02:33:44;;;;;;;11.85;6.28;;;;;;;;;;5046823;28;20045;-80
2022/01/17 02:36:10;;;;;;;9.65;5.85;;;;;;;;;;5045675;28;20026;-80
2022/01/17 02:38:38;;;;;;;11.25;5.95;;;;;;;;;;5045644;28;20033;-80
2022/01/17 02:41:03;;;;;;;12.07;6.68;;;;;;;;;;5029087;28;20026;-80
2022/01/17 02:43:31;;;;;;;13.07;6.70;;;;;;;;;;5047346;28;20035;-81
2022/01/17 02:48:33;;;;;;;10.50;5.55;;;;;;;;;;5046897;28;20025;-81
2022/01/17 02:51:00;;;;;;;9.93;6.03;;;;;;;;;;5046156;28;20064;-80
2022/01/17 02:53:26;;;;;;;10.32;6.22;;;;;;;;;;5046754;28;20021;-81
2022/01/17 02:55:54;;;;;;;9.85;5.90;;;;;;;;;;5046004;28;20102;-79
2022/01/17 02:58:22;;;;;;;6.88;4.03;;;;;;;;;;5028110;28;20036;-80
2022/01/17 03:00:49;;;;;;;9.25;5.88;;;;;;;;;;5044534;28;20052;-80
2022/01/17 03:03:16;;;;;;;8.70;5.30;;;;;;;;;;5047635;28;20039;-80
2022/01/17 03:05:41;;;;;;;9.18;5.10;;;;;;;;;;5059190;28;20040;-79
2022/01/17 03:08:06;;;;;;;12.40;6.72;;;;;;;;;;5058266;28;20021;-79
2022/01/17 03:13:31;;;;;;;7.93;4.90;;;;;;;;;;5041032;28;20060;-79
2022/01/17 03:15:59;;;;;;;10.45;5.40;;;;;;;;;;5039478;28;20064;-79
2022/01/17 03:18:27;;;;;;;8.95;5.85;;;;;;;;;;5042313;28;20029;-78
2022/01/17 03:20:53;;;;;;;10.75;5.57;;;;;;;;;;5042787;28;20022;-79
2022/01/17 03:23:18;;;;;;;10.32;6.07;;;;;;;;;;5044000;28;20021;-79
2022/01/17 03:25:44;;;;;;;11.90;5.65;;;;;;;;;;5043614;28;20080;-78
2022/01/17 03:28:09;;;;;;;8.85;4.70;;;;;;;;;;5044491;28;20386;-81
2022/01/17 03:30:35;;;;;;;8.50;4.70;;;;;;;;;;5027322;28;20026;-82
2022/01/17 03:33:06;;;;;;;7.25;4.38;;;;;;;;;;5045797;28;20033;-80
2022/01/17 03:35:32;;;;;;;9.23;5.40;;;;;;;;;;5045615;28;20025;-80
2022/01/17 03:37:58;;;;;;;8.35;4.45;;;;;;;;;;5045650;28;20036;-80
2022/01/17 03:40:24;;;;;;;8.15;4.65;;;;;;;;;;5044222;28;20025;-80
2022/01/17 03:42:49;;;;;;;8.20;4.55;;;;;;;;;;5045282;28;20364;-79
2022/01/17 03:45:15;;;;;;;7.20;4.45;;;;;;;;;;5044463;28;20060;-81
2022/01/17 03:47:43;;;;;;;3.55;2.40;;;;;;;;;;5045195;28;20032;-80
2022/01/17 03:50:13;;;;;;;9.52;4.53;;;;;;;;;;5027992;28;20071;-81
2022/01/17 03:52:40;;;;;;;5.35;3.42;;;;;;;;;;5045077;28;20032;-80
2022/01/17 03:55:09;;;;;;;4.40;2.58;;;;;;;;;;5045108;28;20055;-80
2022/01/17 03:57:35;;;;;;;7.60;4.15;;;;;;;;;;5045624;28;20048;-80
2022/01/17 04:00:00;;;;;;;7.10;3.92;;;;;;;;;;5045943;28;20025;-81
2022/01/17 04:02:25;;;;;;;7.10;4.60;;;;;;;;;;5045491;28;20120;-80
2022/01/17 04:04:51;;;;;;;7.30;3.80;;;;;;;;;;5046151;28;20438;-81
2022/01/17 04:07:16;;;;;;;5.90;3.65;;;;;;;;;;5047165;28;20029;-81
2022/01/17 04:09:41;;;;;;;6.18;2.95;;;;;;;;;;5044322;28;20368;-81
2022/01/17 04:12:07;;;;;;;7.03;4.47;;;;;;;;;;5046677;28;20028;-81
2022/01/17 04:14:35;;;;;;;6.75;4.18;;;;;;;;;;5046947;28;20092;-81
2022/01/17 04:17:01;;;;;;;5.80;3.55;;;;;;;;;;5045877;28;20112;-79
2022/01/17 04:19:27;;;;;;;5.78;3.97;;;;;;;;;;5046972;28;20390;-81
2022/01/17 04:21:52;;;;;;;9.07;4.38;;;;;;;;;;5046753;28;20025;-81
2022/01/17 04:24:17;;;;;;;9.98;4.35;;;;;;;;;;5046028;28;20021;-81
2022/01/17 04:26:42;;;;;;;11.88;4.38;;;;;;;;;;5046756;28;20026;-81
2022/01/17 04:29:08;;;;;;;8.85;3.75;;;;;;;;;;5046416;28;20108;-80
2022/01/17 04:31:34;;;;;;;5.80;3.63;;;;;;;;;;5048130;28;20021;-81
2022/01/17 04:33:59;;;;;;;8.45;4.07;;;;;;;;;;5046472;28;20501;-80
2022/01/17 04:36:26;;;;;;;5.03;3.15;;;;;;;;;;5046634;28;20056;-80
2022/01/17 04:38:51;;;;;;;6.38;3.85;;;;;;;;;;5046141;28;20056;-80
2022/01/17 04:41:18;;;;;;;7.10;4.40;;;;;;;;;;5045852;28;20025;-79
2022/01/17 04:43:56;;;;;;;7.78;4.30;;;;;;;;;;5046393;28;20025;-81
2022/01/17 04:46:21;;;;;;;6.03;3.97;;;;;;;;;;5046543;28;20025;-80
2022/01/17 04:48:47;;;;;;;8.20;4.15;;;;;;;;;;5029627;28;20036;-81
2022/01/17 04:51:12;;;;;;;6.90;4.25;;;;;;;;;;5047393;28;20029;-81
2022/01/17 04:53:39;;;;;;;7.25;4.13;;;;;;;;;;5047185;28;20026;-79
2022/01/17 04:56:04;;;;;;;6.30;3.60;;;;;;;;;;5046836;28;20022;-82
2022/01/17 04:58:29;;;;;;;6.50;3.28;;;;;;;;;;5045400;28;20112;-80
2022/01/17 05:00:55;;;;;;;5.18;3.30;;;;;;;;;;5044808;28;20028;-80
2022/01/17 05:03:23;;;;;;;6.07;3.72;;;;;;;;;;5045411;28;20029;-80
2022/01/17 05:05:48;;;;;;;6.05;3.72;;;;;;;;;;5045152;28;20025;-79
2022/01/17 05:08:14;;;;;;;5.75;3.53;;;;;;;;;;5044986;28;20071;-79
2022/01/17 05:10:42;;;;;;;6.45;3.40;;;;;;;;;;5044765;28;20025;-80
2022/01/17 05:13:09;;;;;;;5.88;3.50;;;;;;;;;;5045946;28;20029;-80
2022/01/17 05:15:38;;;;;;;7.20;3.78;;;;;;;;;;5046009;28;20048;-81
2022/01/17 05:18:24;;;;;;;4.75;2.75;;;;;;;;;;5053345;28;20025;-79
2022/01/17 05:20:50;;;;;;;6.45;3.85;;;;;;;;;;5053983;28;20029;-79
2022/01/17 05:23:15;;;;;;;5.80;3.72;;;;;;;;;;5056771;28;20017;-79
2022/01/17 05:25:40;;;;;;;4.90;2.78;;;;;;;;;;5038774;28;20104;-79
2022/01/17 05:28:05;;;;;;;4.95;3.20;;;;;;;;;;5040038;28;20045;-79
2022/01/17 05:30:31;;;;;;;6.43;3.83;;;;;;;;;;5043015;28;20029;-81
2022/01/17 05:32:58;;;;;;;4.97;3.25;;;;;;;;;;5043669;28;20036;-79
2022/01/17 05:35:23;;;;;;;6.80;3.60;;;;;;;;;;5045669;28;20368;-80
2022/01/17 05:37:49;;;;;;;5.85;3.25;;;;;;;;;;5045934;28;20109;-80
2022/01/17 05:40:16;;;;;;;4.75;3.05;;;;;;;;;;5044490;28;20105;-79
2022/01/17 05:42:42;;;;;;;10.45;3.97;;;;;;;;;;5046788;28;20029;-80
2022/01/17 05:45:09;;;;;;;7.78;3.33;;;;;;;;;;5045651;28;20109;-79
2022/01/17 05:47:34;;;;;;;6.20;3.33;;;;;;;;;;5045791;28;20040;-80
2022/01/17 05:50:02;;;;;;;5.50;3.42;;;;;;;;;;5045077;28;20030;-81
2022/01/17 05:52:28;;;;;;;5.57;3.35;;;;;;;;;;5045488;28;20478;-81
2022/01/17 05:54:53;;;;;;;5.20;3.00;;;;;;;;;;5044439;28;20108;-81
2022/01/17 05:57:18;;;;;;;5.32;2.53;;;;;;;;;;5044537;28;20029;-79
2022/01/17 05:59:44;;;;;;;4.70;2.70;;;;;;;;;;5045611;28;20034;-79
2022/01/17 06:02:09;;;;;;;6.20;2.45;;;;;;;;;;5043915;28;20021;-79
2022/01/17 06:04:35;;;;;;;6.90;3.28;;;;;;;;;;5027442;28;20442;-79
2022/01/17 06:07:02;;;;;;;3.53;2.22;;;;;;;;;;5044612;28;20036;-80
2022/01/17 06:09:27;;;;;;;7.28;3.20;;;;;;;;;;5046258;28;20463;-81
2022/01/17 06:11:52;;;;;;;6.25;3.25;;;;;;;;;;5048240;28;20022;-79
2022/01/17 06:14:18;;;;;;;4.03;2.47;;;;;;;;;;5051489;28;20105;-81
2022/01/17 06:16:47;;;;;;;6.85;3.47;;;;;;;;;;5050185;28;20056;-82
2022/01/17 06:19:14;;;;;;;6.03;3.00;;;;;;;;;;5045864;28;20029;-80
2022/01/17 06:21:39;;;;;;;6.72;3.20;;;;;;;;;;5046464;28;20116;-79
2022/01/17 06:24:09;;;;;;;7.97;2.90;;;;;;;;;;5046773;28;20029;-79
2022/01/17 06:26:36;;;;;;;6.07;3.63;;;;;;;;;;5045209;28;20025;-80
2022/01/17 06:29:02;;;;;;;8.55;3.85;;;;;;;;;;5045459;28;20041;-79
2022/01/17 06:31:27;;;;;;;6.93;3.72;;;;;;;;;;5029278;28;20387;-81
2022/01/17 06:33:53;;;;;;;7.78;3.60;;;;;;;;;;5046835;28;20036;-80
2022/01/17 06:36:18;;;;;;;8.60;3.67;;;;;;;;;;5046555;28;20036;-80
2022/01/17 06:38:43;;;;;;;6.35;3.42;;;;;;;;;;5046011;28;20037;-80
2022/01/17 06:41:08;;;;;;;6.57;3.35;;;;;;;;;;5046706;28;20103;-80
2022/01/17 06:43:34;;;;;;;9.13;3.85;;;;;;;;;;5046696;28;20022;-80
2022/01/17 06:45:59;;;;;;;8.02;3.97;;;;;;;;;;5047172;28;20032;-82
2022/01/17 06:48:24;;;;;;;7.07;3.67;;;;;;;;;;5045420;28;20021;-79
2022/01/17 06:50:49;;;;;;;6.10;2.92;;;;;;;;;;5045858;28;20025;-80
2022/01/17 06:53:15;;;;;;;4.40;2.78;;;;;;;;;;5044814;28;20100;-80
2022/01/17 06:55:40;;;;;;;5.75;2.97;;;;;;;;;;5045391;28;20037;-80
2022/01/17 06:58:05;;;;;;;7.05;3.22;;;;;;;;;;5043958;28;20116;-80
2022/01/17 07:00:30;;;;;;;7.50;3.80;;;;;;;;;;5045601;28;20029;-80
2022/01/17 07:02:56;;;;;;;6.30;3.40;;;;;;;;;;5045597;28;20116;-80
2022/01/17 07:05:21;;;;;;;10.15;3.65;;;;;;;;;;5045784;28;20053;-79
2022/01/17 07:07:46;;;;;;;7.20;2.78;;;;;;;;;;5044172;28;20112;-80
2022/01/17 07:10:12;;;;;;;6.80;2.67;;;;;;;;;;5043176;28;20382;-81
2022/01/17 07:12:37;;;;;;;9.23;3.50;;;;;;;;;;5044936;28;20025;-78
2022/01/17 07:15:04;;;;;;;4.97;2.65;;;;;;;;;;5045447;28;20040;-80
2022/01/17 07:17:30;;;;;;;5.97;3.33;;;;;;;;;;5045385;28;20085;-80
2022/01/17 07:19:57;;;;;;;7.00;2.97;;;;;;;;;;5045552;28;20028;-79
2022/01/17 07:22:23;;;;;;;4.90;2.60;;;;;;;;;;5046149;28;20040;-80
2022/01/17 07:24:48;;;;;;;5.85;2.47;;;;;;;;;;5045039;28;20406;-81
2022/01/17 07:27:15;;;;;;;7.10;2.88;;;;;;;;;;5046596;28;20040;-80
2022/01/17 07:29:40;;;;;;;4.57;2.03;;;;;;;;;;5046355;28;20032;-80
2022/01/17 07:32:07;;;;;;;6.15;2.60;;;;;;;;;;5046602;28;20025;-81
2022/01/17 07:34:32;;;;;;;6.53;2.72;;;;;;;;;;5046265;28;20017;-80
2022/01/17 07:36:59;;;;;;;5.70;2.38;;;;;;;;;;5046287;28;20033;-81
2022/01/17 07:39:24;;;;;;;4.47;2.10;;;;;;;;;;5027087;28;20079;-79
2022/01/17 07:41:50;;;;;;;6.32;2.97;;;;;;;;;;5039815;28;20033;-82
2022/01/17 07:44:20;;;;;;;6.80;2.70;;;;;;;;;;5040053;28;20029;-79
2022/01/17 07:46:55;;;;;;;5.57;2.35;;;;;;;;;;5037990;28;20031;-79
2022/01/17 07:49:21;;;;;;;5.82;1.95;;;;;;;;;;5020439;28;20023;-79
2022/01/17 07:51:56;;;;;;;7.00;2.40;;;;;;;;;;5038724;28;20033;-80
2022/01/17 07:54:23;;;;;;;5.85;2.80;;;;;;;;;;5037518;28;20490;-79
2022/01/17 07:56:49;;;;;;;5.65;2.30;;;;;;;;;;5037470;28;20390;-80
2022/01/17 07:59:14;;;;;;;6.50;1.83;;;;;;;;;;5037410;28;20026;-78
2022/01/17 08:01:40;;;;;;;4.85;2.05;;;;;;;;;;5036900;28;20071;-80
2022/01/17 08:04:07;;;;;;;6.43;2.28;;;;;;;;;;5036949;28;20025;-80
2022/01/17 08:06:39;;;;;;;4.88;2.03;;;;;;;;;;5037232;28;20026;-80
2022/01/17 08:09:20;;;;;;;5.70;2.58;;;;;;;;;;5037693;28;20443;-80
2022/01/17 08:11:46;;;;;;;8.60;2.30;;;;;;;;;;5037664;28;20025;-80
2022/01/17 08:14:12;;;;;;;5.25;2.38;;;;;;;;;;5037194;28;20052;-79
2022/01/17 08:16:37;;;;;;;7.28;2.28;;;;;;;;;;5018931;28;20070;-81
2022/01/17 08:19:02;;;;;;;6.97;2.50;;;;;;;;;;5036490;28;20116;-79
2022/01/17 08:21:28;;;;;;;6.82;1.98;;;;;;;;;;5036875;28;20494;-79
2022/01/17 08:23:54;;;;;;;4.30;2.00;;;;;;;;;;5037093;28;20113;-79
2022/01/17 08:26:20;;;;;;;5.70;2.25;;;;;;;;;;5036524;28;20032;-80
2022/01/17 08:28:46;;;;;;;7.65;2.53;;;;;;;;;;5036465;28;20049;-78
2022/01/17 08:31:11;;;;;;;5.63;2.60;;;;;;;;;;5036645;28;20479;-79
2022/01/17 08:33:37;;;;;;;6.10;2.25;;;;;;;;;;5036129;28;20033;-80
2022/01/17 08:36:02;;;;;;;5.50;1.92;;;;;;;;;;5036968;28;20028;-79
2022/01/17 08:38:29;;;;;;;5.90;2.53;;;;;;;;;;5036804;28;20100;-79
2022/01/17 08:40:58;;;;;;;4.15;2.33;;;;;;;;;;5037837;28;20021;-80
2022/01/17 08:43:24;;;;;;;3.30;1.17;;;;;;;;;;5036872;28;20049;-80
2022/01/17 08:45:49;;;;;;;8.00;2.58;;;;;;;;;;5036965;28;20033;-80
2022/01/17 08:48:15;;;;;;;6.20;2.25;;;;;;;;;;5019766;28;20083;-79
2022/01/17 08:50:41;;;;;;;4.35;2.00;;;;;;;;;;5035219;28;20368;-80
2022/01/17 08:53:10;;;;;;;2.90;1.42;;;;;;;;;;5036933;28;20037;-81
2022/01/17 08:55:35;;;;;;;3.67;1.55;;;;;;;;;;5036592;28;20089;-80
2022/01/17 08:58:02;;;;;;;5.32;1.98;;;;;;;;;;5018785;28;20068;-81
2022/01/17 09:00:27;;;;;;;3.25;1.73;;;;;;;;;;5037021;28;20371;-80
2022/01/17 09:02:52;;;;;;;2.70;1.10;;;;;;;;;;5018616;28;20021;-80
2022/01/17 09:05:17;;;;;;;2.67;1.70;;;;;;;;;;5038605;28;20526;-82
2022/01/17 09:07:43;;;;;;;2.80;1.42;;;;;;;;;;5047573;28;20502;-80
2022/01/17 09:10:08;;;;;;;2.47;1.05;;;;;;;;;;5047694;28;20394;-79
2022/01/17 09:12:33;;;;;;;3.65;1.60;;;;;;;;;;5045604;28;20025;-79
2022/01/17 09:15:00;;;;;;;3.10;1.40;;;;;;;;;;5043482;28;20071;-80
2022/01/17 09:17:25;;;;;;;4.32;1.35;;;;;;;;;;5035557;28;20491;-80
2022/01/17 09:19:51;;;;;;;5.90;2.03;;;;;;;;;;5036094;28;20025;-81
2022/01/17 09:22:16;;;;;;;3.78;1.48;;;;;;;;;;5035597;28;20101;-80
2022/01/17 09:24:41;;;;;;;3.45;1.48;;;;;;;;;;5036060;28;20025;-79
2022/01/17 09:27:07;;;;;;;3.53;1.55;;;;;;;;;;5035821;28;20076;-80
2022/01/17 09:29:33;;;;;;;2.50;1.65;;;;;;;;;;5036158;28;20525;-79
2022/01/17 09:31:59;;;;;;;5.95;1.90;;;;;;;;;;5036626;28;20115;-80
2022/01/17 09:34:25;;;;;;;6.15;1.75;;;;;;;;;;5036746;28;20025;-82
2022/01/17 09:36:52;;;;;;;2.05;1.23;;;;;;;;;;5019808;28;20437;-82
2022/01/17 09:39:17;;;;;;;4.22;1.50;;;;;;;;;;5037504;28;20052;-80
2022/01/17 09:41:42;;;;;;;3.03;1.67;;;;;;;;;;5037034;28;20025;-80
2022/01/17 09:44:09;;;;;;;4.68;1.60;;;;;;;;;;5039058;28;20029;-80
2022/01/17 09:46:38;;;;;;;6.15;2.53;;;;;;;;;;5041593;28;20022;-80
2022/01/17 09:49:14;;;;;;;3.20;1.52;;;;;;;;;;5041403;28;20037;-82
2022/01/17 09:54:28;;;;;;;5.35;1.42;;;;;;;;;;5040568;28;20510;-80
2022/01/17 09:56:54;;;;;;;3.22;1.00;;;;;;;;;;5040574;28;20030;-80
2022/01/17 09:59:20;;;;;;;4.47;1.67;;;;;;;;;;5040869;28;20030;-79
2022/01/17 10:01:46;;;;;;;3.45;1.40;;;;;;;;;;5041067;28;20079;-81
2022/01/17 10:04:12;;;;;;;5.68;1.70;;;;;;;;;;5040304;28;20422;-80
2022/01/17 10:06:39;;;;;;;2.67;1.17;;;;;;;;;;5022730;28;20031;-80
2022/01/17 10:09:24;;;;;;;6.50;1.52;;;;;;;;;;5040673;28;20047;-79
2022/01/17 10:12:01;;;;;;;3.92;1.48;;;;;;;;;;5040550;28;20035;-82
2022/01/17 10:14:28;;;;;;;2.78;1.00;;;;;;;;;;5040435;28;20547;-80
2022/01/17 10:16:54;;;;;;;6.13;1.48;;;;;;;;;;5040407;28;20052;-81
2022/01/17 10:19:21;;;;;;;4.95;1.55;;;;;;;;;;5040226;28;20021;-81
2022/01/17 10:21:50;;;;;;;5.65;1.40;;;;;;;;;;5041026;28;20026;-79
2022/01/17 10:35:09;;;;;;;4.65;1.23;;;;;;;;;;5040288;28;20055;-81
2022/01/17 10:37:35;;;;;;;4.80;1.42;;;;;;;;;;5040101;28;20017;-80
2022/01/17 10:40:10;;;;;;;5.38;1.33;;;;;;;;;;5040763;28;20017;-81
2022/01/17 10:42:45;;;;;;;2.20;0.93;;;;;;;;;;5022214;28;20060;-82
2022/01/17 10:45:20;;;;;;;3.92;1.30;;;;;;;;;;5040253;28;20152;-82
2022/01/17 10:47:47;;;;;;;4.90;1.48;;;;;;;;;;5040553;28;20025;-82
2022/01/17 10:50:21;;;;;;;5.72;1.25;;;;;;;;;;5040180;28;20373;-81
2022/01/17 10:52:49;;;;;;;6.53;1.23;;;;;;;;;;5039605;28;20021;-81
2022/01/17 10:55:19;;;;;;;6.18;1.40;;;;;;;;;;5039058;28;20026;-82
2022/01/17 10:57:47;;;;;;;3.60;1.30;;;;;;;;;;5039306;28;20022;-81
2022/01/17 11:00:16;;;;;;;4.40;1.55;;;;;;;;;;5039559;28;20026;-81
2022/01/17 11:02:45;;;;;;;3.65;0.98;;;;;;;;;;5039005;28;20025;-79
2022/01/17 11:05:11;;;;;;;5.20;1.60;;;;;;;;;;5038809;28;20032;-81
2022/01/17 11:07:39;;;;;;;5.13;1.60;;;;;;;;;;5039398;28;20029;-80
2022/01/17 11:10:08;;;;;;;2.53;1.25;;;;;;;;;;5039746;28;20105;-81
2022/01/17 11:12:34;;;;;;;6.15;1.15;;;;;;;;;;5039770;28;20036;-81
2022/01/17 11:14:59;;;;;;;2.70;1.30;;;;;;;;;;5039594;28;20045;-82
2022/01/17 11:17:33;;;;;;;4.97;1.25;;;;;;;;;;5039346;28;20075;-81
2022/01/17 11:20:07;;;;;;;9.18;1.65;;;;;;;;;;5039762;28;20116;-80
2022/01/17 11:22:38;;;;;;;2.28;0.95;;;;;;;;;;5038861;28;20049;-81
2022/01/17 11:25:05;;;;;;;1.73;1.17;;;;;;;;;;5038634;28;20044;-80
2022/01/17 11:27:31;;;;;;;4.43;1.20;;;;;;;;;;5039049;28;20053;-81
2022/01/17 11:29:57;;;;;;;4.47;1.55;;;;;;;;;;5039235;28;20494;-81
2022/01/17 11:32:23;;;;;;;5.25;1.15;;;;;;;;;;5039278;28;20053;-82
2022/01/17 11:34:50;;;;;;;8.25;1.65;;;;;;;;;;5039341;28;20076;-81
2022/01/17 11:37:17;;;;;;;4.00;1.27;;;;;;;;;;5039472;28;20029;-81
2022/01/17 11:39:51;;;;;;;6.40;1.92;;;;;;;;;;5038932;28;20021;-81
2022/01/17 11:42:45;;;;;;;6.18;1.33;;;;;;;;;;5039363;28;20025;-81
2022/01/17 11:45:22;;;;;;;5.90;1.30;;;;;;;;;;5039083;28;20032;-80
2022/01/17 11:48:17;;;;;;;5.30;1.33;;;;;;;;;;5020833;28;20045;-79
2022/01/17 11:50:45;;;;;;;3.70;1.10;;;;;;;;;;5035491;28;20487;-79
2022/01/17 11:53:10;;;;;;;4.65;1.65;;;;;;;;;;5038388;28;20036;-81
2022/01/17 11:55:39;;;;;;;2.17;1.43;;;;;;;;;;5038030;28;20406;-81
2022/01/17 11:58:28;;;;;;;2.88;1.38;;;;;;;;;;5038204;28;20079;-79
2022/01/17 12:00:59;;;;;;;1.40;0.75;;;;;;;;;;5037738;28;20467;-79
2022/01/17 12:03:26;;;;;;;2.00;1.05;;;;;;;;;;5037505;28;20588;-79
2022/01/17 12:05:53;;;;;;;3.22;1.63;;;;;;;;;;5037312;28;20025;-80
2022/01/17 12:08:22;;;;;;;4.50;1.50;;;;;;;;;;5037408;28;20537;-79
2022/01/17 12:10:53;;;;;;;6.55;1.42;;;;;;;;;;5039619;28;20035;-80
2022/01/17 12:13:20;;;;;;;4.20;1.40;;;;;;;;;;5042216;28;20026;-78
2022/01/17 12:15:55;;;;;;;2.70;1.05;;;;;;;;;;5045742;28;20024;-80
2022/01/17 12:18:32;;;;;;;3.97;1.50;;;;;;;;;;5042498;28;20064;-79
2022/01/17 12:21:28;;;;;;;3.75;1.25;;;;;;;;;;5045988;28;20049;-81
2022/01/17 12:24:16;;;;;;;5.72;1.70;;;;;;;;;;5036615;28;20021;-79
2022/01/17 12:26:53;;;;;;;3.17;1.35;;;;;;;;;;5035851;28;20022;-79
2022/01/17 12:29:36;;;;;;;5.35;1.52;;;;;;;;;;5018242;28;20036;-80
2022/01/17 12:32:01;;;;;;;4.40;1.65;;;;;;;;;;5037511;28;20028;-79
2022/01/17 12:34:27;;;;;;;4.65;1.52;;;;;;;;;;5037062;28;20077;-77
2022/01/17 12:36:55;;;;;;;2.95;1.42;;;;;;;;;;5036716;28;20418;-80
2022/01/17 12:39:26;;;;;;;3.85;1.50;;;;;;;;;;5036719;28;20017;-79
2022/01/17 12:41:53;;;;;;;8.15;1.85;;;;;;;;;;5019076;28;20032;-80
2022/01/17 12:44:22;;;;;;;4.72;1.75;;;;;;;;;;5037163;28;20029;-79
2022/01/17 12:46:50;;;;;;;2.22;1.38;;;;;;;;;;5036885;28;20022;-79
2022/01/17 12:49:16;;;;;;;2.65;1.42;;;;;;;;;;5037144;28;20029;-79
2022/01/17 12:51:44;;;;;;;3.65;0.90;;;;;;;;;;5036340;28;20026;-79
2022/01/17 12:54:12;;;;;;;3.53;1.27;;;;;;;;;;5019637;28;20073;-80
2022/01/17 12:56:41;;;;;;;3.83;1.50;;;;;;;;;;5036410;28;20495;-79
2022/01/17 12:59:09;;;;;;;2.53;1.20;;;;;;;;;;5036541;28;20113;-79
2022/01/17 13:01:34;;;;;;;1.92;1.15;;;;;;;;;;5036762;28;20017;-82
2022/01/17 13:04:06;;;;;;;3.42;1.25;;;;;;;;;;5036803;28;20056;-78
2022/01/17 13:06:32;;;;;;;2.42;0.82;;;;;;;;;;5037871;28;20029;-79
2022/01/17 13:08:59;;;;;;;4.00;0.63;;;;;;;;;;5034627;28;20041;-77
2022/01/17 13:11:25;;;;;;;2.00;0.50;;;;;;;;;;5033988;28;20082;-77
2022/01/17 13:13:54;;;;;;;4.35;0.95;;;;;;;;;;5033565;28;20033;-77
2022/01/17 13:16:21;;;;;;;3.40;0.60;;;;;;;;;;5033377;28;20387;-77
2022/01/17 13:18:47;;;;;;;2.17;0.60;;;;;;;;;;5036290;28;20548;-77
2022/01/17 13:21:12;;;;;;;9.70;1.00;;;;;;;;;;5040059;28;20021;-79
2022/01/17 13:23:48;;;;;;;5.65;0.80;;;;;;;;;;5040093;28;20119;-77
2022/01/17 13:26:37;;;;;;;7.45;0.90;;;;;;;;;;5039562;28;20021;-78
2022/01/17 13:29:07;;;;;;;5.35;0.93;;;;;;;;;;5038437;28;20021;-77
2022/01/17 13:31:32;;;;;;;7.15;0.90;;;;;;;;;;5040182;28;20506;-76
2022/01/17 13:34:09;;;;;;;5.30;1.00;;;;;;;;;;5041611;28;20025;-78
2022/01/17 13:36:36;;;;;;;4.72;0.85;;;;;;;;;;5043128;28;20037;-78
2022/01/17 13:39:13;;;;;;;3.15;0.80;;;;;;;;;;5042867;28;20429;-78
2022/01/17 13:41:44;;;;;;;6.30;1.00;;;;;;;;;;5041823;28;20386;-77
2022/01/17 13:44:10;;;;;;;6.78;1.08;;;;;;;;;;5040539;28;20022;-78
2022/01/17 13:46:38;;;;;;;7.63;0.98;;;;;;;;;;5040021;28;20103;-77
2022/01/17 13:49:07;;;;;;;17.30;1.35;;;;;;;;;;5040392;28;20032;-77
2022/01/17 13:51:36;;;;;;;4.15;0.90;;;;;;;;;;5040272;28;20430;-77
2022/01/17 13:54:02;;;;;;;5.25;1.15;;;;;;;;;;5041000;28;20025;-78
2022/01/17 13:56:33;;;;;;;11.55;1.45;;;;;;;;;;5040470;28;20112;-78
2022/01/17 13:58:58;;;;;;;7.40;1.58;;;;;;;;;;5041894;28;20082;-79
2022/01/17 14:01:23;;;;;;;7.25;1.35;;;;;;;;;;5040859;28;20021;-78
2022/01/17 14:03:49;;;;;;;8.00;1.15;;;;;;;;;;5040151;28;20399;-78
2022/01/17 14:06:15;;;;;;;4.28;0.98;;;;;;;;;;5040500;28;20029;-78
2022/01/17 14:08:50;;;;;;;9.38;1.33;;;;;;;;;;5043902;28;20557;-79
2022/01/17 14:11:22;;;;;;;7.60;1.20;;;;;;;;;;5043105;28;20026;-78
2022/01/17 14:13:52;;;;;;;11.13;1.27;;;;;;;;;;5042323;28;20453;-78
2022/01/17 14:16:35;;;;;;;5.72;1.08;;;;;;;;;;5043317;28;20025;-78
2022/01/17 14:19:04;;;;;;;11.45;1.17;;;;;;;;;;5041077;28;20029;-79
2022/01/17 14:21:32;;;;;;;8.82;1.80;;;;;;;;;;5041610;28;20033;-78
2022/01/17 14:24:14;;;;;;;9.40;1.23;;;;;;;;;;5041355;28;20072;-80
2022/01/17 14:26:49;;;;;;;11.05;1.30;;;;;;;;;;5041485;28;20027;-78
2022/01/17 14:29:16;;;;;;;11.05;1.30;;;;;;;;;;5040588;28;20025;-78
2022/01/17 14:31:44;;;;;;;9.85;1.20;;;;;;;;;;5038637;28;20040;-78
2022/01/17 14:34:17;;;;;;;7.43;1.15;;;;;;;;;;5021209;28;20052;-78
2022/01/17 14:36:55;;;;;;;6.82;1.17;;;;;;;;;;5039368;28;20025;-78
2022/01/17 14:39:28;;;;;;;8.68;1.55;;;;;;;;;;5038730;28;20543;-77
2022/01/17 14:41:53;;;;;;;13.18;1.73;;;;;;;;;;5038746;28;20096;-78
2022/01/17 14:44:18;;;;;;;2.97;0.88;;;;;;;;;;5038868;28;20021;-78
2022/01/17 14:46:50;;;;;;;5.38;1.48;;;;;;;;;;5037633;28;20386;-76
2022/01/17 14:49:21;;;;;;;13.77;1.98;;;;;;;;;;5036780;28;20037;-77
2022/01/17 14:51:48;;;;;;;7.93;1.30;;;;;;;;;;5038127;28;20021;-78
2022/01/17 14:54:17;;;;;;;9.45;1.92;;;;;;;;;;5038196;28;20021;-78
2022/01/17 15:02:49;;;;;;;10.88;1.30;;;;;;;;;;5038756;28;20061;-78
2022/01/17 15:04:40;;;;;;;10.00;1.50;;;;;;;;;;5028855;28;20034;-78
2022/01/17 15:07:09;;;;;;;10.52;3.58;;;;;;;;;;5038063;28;20071;-78
2022/01/17 15:09:35;;;;;;;12.65;3.55;;;;;;;;;;5038457;28;20031;-78
2022/01/17 15:12:00;;;;;;;7.40;1.80;;;;;;;;;;5037106;28;20025;-77
2022/01/17 15:14:26;;;;;;;5.30;1.10;;;;;;;;;;5036701;28;20442;-79
2022/01/17 15:16:51;;;;;;;7.60;1.15;;;;;;;;;;5035747;28;20116;-77
2022/01/17 15:19:16;;;;;;;4.13;1.00;;;;;;;;;;5036705;28;20044;-77
2022/01/17 15:21:42;;;;;;;6.68;1.33;;;;;;;;;;5036871;28;20148;-78